sensor_id;sensor_type;location;lat;lon;timestamp;pressure;altitude;pressure_sealevel;temperature;humidity
57779;BME280;43608;49.486;9.640;2022-10-16T00:00:28;98447.03;;;14.75;98.47
57779;BME280;43608;49.486;9.640;2022-10-16T00:00:58;98478.69;;;14.91;98.28
57779;BME280;43608;49.486;9.640;2022-10-16T00:01:34;98467.19;;;14.87;98.32
57779;BME280;43608;49.486;9.640;2022-10-16T00:02:05;98474.25;;;14.90;98.31
57779;BME280;43608;49.486;9.640;2022-10-16T00:02:35;98466.34;;;14.85;98.43
57779;BME280;43608;49.486;9.640;2022-10-16T00:03:06;98473.41;;;14.87;98.30
57779;BME280;43608;49.486;9.640;2022-10-16T00:03:37;98473.41;;;14.87;98.23
57779;BME280;43608;49.486;9.640;2022-10-16T00:04:08;98458.47;;;14.80;98.38
57779;BME280;43608;49.486;9.640;2022-10-16T00:04:39;98471.63;;;14.88;98.51
57779;BME280;43608;49.486;9.640;2022-10-16T00:05:09;98462.00;;;14.81;98.40
57779;BME280;43608;49.486;9.640;2022-10-16T00:05:43;98471.66;;;14.86;98.41
57779;BME280;43608;49.486;9.640;2022-10-16T00:06:16;98470.78;;;14.86;98.45
57779;BME280;43608;49.486;9.640;2022-10-16T00:06:46;98467.28;;;14.84;98.53
57779;BME280;43608;49.486;9.640;2022-10-16T00:07:17;98470.81;;;14.84;98.56
57779;BME280;43608;49.486;9.640;2022-10-16T00:07:47;98445.38;;;14.69;98.54
57779;BME280;43608;49.486;9.640;2022-10-16T00:08:17;98470.81;;;14.84;98.61
57779;BME280;43608;49.486;9.640;2022-10-16T00:08:49;98470.91;;;14.81;98.60
57779;BME280;43608;49.486;9.640;2022-10-16T00:09:20;98472.63;;;14.82;98.72
57779;BME280;43608;49.486;9.640;2022-10-16T00:09:50;98474.44;;;14.82;98.58
57779;BME280;43608;49.486;9.640;2022-10-16T00:10:20;98475.38;;;14.79;98.77
57779;BME280;43608;49.486;9.640;2022-10-16T00:10:51;98456.09;;;14.68;98.72
57779;BME280;43608;49.486;9.640;2022-10-16T00:11:24;98459.66;;;14.68;98.78
57779;BME280;43608;49.486;9.640;2022-10-16T00:11:54;98472.78;;;14.78;98.85
57779;BME280;43608;49.486;9.640;2022-10-16T00:12:25;98478.91;;;14.80;98.90
57779;BME280;43608;49.486;9.640;2022-10-16T00:12:55;98476.31;;;14.78;98.64
57779;BME280;43608;49.486;9.640;2022-10-16T00:13:25;98472.88;;;14.73;98.65
57779;BME280;43608;49.486;9.640;2022-10-16T00:13:58;98479.06;;;14.75;98.43
57779;BME280;43608;49.486;9.640;2022-10-16T00:14:29;98472.81;;;14.75;98.54
57779;BME280;43608;49.486;9.640;2022-10-16T00:14:59;98401.03;;;14.29;98.76
57779;BME280;43608;49.486;9.640;2022-10-16T00:15:30;98462.38;;;14.65;98.63
57779;BME280;43608;49.486;9.640;2022-10-16T00:16:01;98473.88;;;14.69;98.70
57779;BME280;43608;49.486;9.640;2022-10-16T00:16:32;98486.28;;;14.70;98.70
57779;BME280;43608;49.486;9.640;2022-10-16T00:17:02;98480.16;;;14.66;98.78
57779;BME280;43608;49.486;9.640;2022-10-16T00:17:33;98482.84;;;14.65;98.83
57779;BME280;43608;49.486;9.640;2022-10-16T00:18:04;98472.34;;;14.57;98.69
57779;BME280;43608;49.486;9.640;2022-10-16T00:18:35;98459.28;;;14.46;98.86
57779;BME280;43608;49.486;9.640;2022-10-16T00:19:06;98484.69;;;14.61;98.87
57779;BME280;43608;49.486;9.640;2022-10-16T00:19:37;98483.84;;;14.59;98.96
57779;BME280;43608;49.486;9.640;2022-10-16T00:20:07;98472.41;;;14.54;98.89
57779;BME280;43608;49.486;9.640;2022-10-16T00:20:38;98482.09;;;14.58;99.15
57779;BME280;43608;49.486;9.640;2022-10-16T00:21:12;98487.47;;;14.57;99.15
57779;BME280;43608;49.486;9.640;2022-10-16T00:21:42;98480.38;;;14.56;99.22
57779;BME280;43608;49.486;9.640;2022-10-16T00:22:13;98481.34;;;14.53;99.31
57779;BME280;43608;49.486;9.640;2022-10-16T00:22:43;98479.53;;;14.53;99.32
57779;BME280;43608;49.486;9.640;2022-10-16T00:23:13;98478.66;;;14.53;99.30
57779;BME280;43608;49.486;9.640;2022-10-16T00:23:44;98475.16;;;14.51;99.39
57779;BME280;43608;49.486;9.640;2022-10-16T00:24:15;98482.28;;;14.50;99.28
57779;BME280;43608;49.486;9.640;2022-10-16T00:24:45;98476.94;;;14.50;99.37
57779;BME280;43608;49.486;9.640;2022-10-16T00:25:16;98477.91;;;14.48;99.37
57779;BME280;43608;49.486;9.640;2022-10-16T00:26:00;98475.22;;;14.48;99.34
57779;BME280;43608;49.486;9.640;2022-10-16T00:26:32;98473.47;;;14.47;99.39
57779;BME280;43608;49.486;9.640;2022-10-16T00:27:03;98470.00;;;14.43;99.45
57779;BME280;43608;49.486;9.640;2022-10-16T00:27:34;98479.72;;;14.46;99.41
57779;BME280;43608;49.486;9.640;2022-10-16T00:28:04;98470.84;;;14.45;99.41
57779;BME280;43608;49.486;9.640;2022-10-16T00:28:35;98421.00;;;14.10;99.37
57779;BME280;43608;49.486;9.640;2022-10-16T00:29:06;98474.41;;;14.44;99.45
57779;BME280;43608;49.486;9.640;2022-10-16T00:29:37;98475.31;;;14.43;99.53
57779;BME280;43608;49.486;9.640;2022-10-16T00:30:08;98479.75;;;14.44;99.59
57779;BME280;43608;49.486;9.640;2022-10-16T00:30:40;98479.75;;;14.44;99.50
57779;BME280;43608;49.486;9.640;2022-10-16T00:31:11;98470.16;;;14.37;99.68
57779;BME280;43608;49.486;9.640;2022-10-16T00:31:41;98475.38;;;14.42;99.66
57779;BME280;43608;49.486;9.640;2022-10-16T00:32:11;98478.00;;;14.43;99.58
57779;BME280;43608;49.486;9.640;2022-10-16T00:32:42;98477.13;;;14.43;99.63
57779;BME280;43608;49.486;9.640;2022-10-16T00:33:12;98492.22;;;14.44;99.61
57779;BME280;43608;49.486;9.640;2022-10-16T00:33:43;98431.59;;;14.13;99.69
57779;BME280;43608;49.486;9.640;2022-10-16T00:34:13;98483.34;;;14.42;99.82
57779;BME280;43608;49.486;9.640;2022-10-16T00:34:44;98481.56;;;14.42;99.85
57779;BME280;43608;49.486;9.640;2022-10-16T00:35:14;98487.78;;;14.43;99.88
57779;BME280;43608;49.486;9.640;2022-10-16T00:35:44;98483.34;;;14.42;99.90
57779;BME280;43608;49.486;9.640;2022-10-16T00:36:18;98486.94;;;14.41;99.84
57779;BME280;43608;49.486;9.640;2022-10-16T00:36:48;98494.88;;;14.42;99.88
57779;BME280;43608;49.486;9.640;2022-10-16T00:37:19;98490.50;;;14.40;99.77
57779;BME280;43608;49.486;9.640;2022-10-16T00:37:49;98488.72;;;14.40;99.92
57779;BME280;43608;49.486;9.640;2022-10-16T00:38:19;98464.22;;;14.24;99.90
57779;BME280;43608;49.486;9.640;2022-10-16T00:38:51;98486.97;;;14.39;100.00
57779;BME280;43608;49.486;9.640;2022-10-16T00:39:23;98492.34;;;14.37;100.00
57779;BME280;43608;49.486;9.640;2022-10-16T00:39:54;98483.63;;;14.31;99.90
57779;BME280;43608;49.486;9.640;2022-10-16T00:40:25;98495.88;;;14.38;100.00
57779;BME280;43608;49.486;9.640;2022-10-16T00:40:56;98493.25;;;14.36;100.00
57779;BME280;43608;49.486;9.640;2022-10-16T00:41:27;98478.31;;;14.29;100.00
57779;BME280;43608;49.486;9.640;2022-10-16T00:41:57;98487.97;;;14.35;100.00
57779;BME280;43608;49.486;9.640;2022-10-16T00:42:28;98485.34;;;14.33;100.00
57779;BME280;43608;49.486;9.640;2022-10-16T00:42:58;98481.00;;;14.28;100.00
57779;BME280;43608;49.486;9.640;2022-10-16T00:43:47;98484.53;;;14.30;99.97
57779;BME280;43608;49.486;9.640;2022-10-16T00:45:16;98495.25;;;14.27;100.00
57779;BME280;43608;49.486;9.640;2022-10-16T00:45:46;98487.28;;;14.27;100.00
57779;BME280;43608;49.486;9.640;2022-10-16T00:46:52;98476.75;;;14.20;100.00
57779;BME280;43608;49.486;9.640;2022-10-16T00:47:56;98494.50;;;14.21;100.00
57779;BME280;43608;49.486;9.640;2022-10-16T00:48:27;98486.53;;;14.18;100.00
57779;BME280;43608;49.486;9.640;2022-10-16T00:49:09;98479.66;;;14.08;100.00
57779;BME280;43608;49.486;9.640;2022-10-16T00:49:40;98486.59;;;14.17;100.00
57779;BME280;43608;49.486;9.640;2022-10-16T00:50:17;98499.00;;;14.18;100.00
57779;BME280;43608;49.486;9.640;2022-10-16T00:50:49;98479.66;;;14.08;100.00
57779;BME280;43608;49.486;9.640;2022-10-16T00:51:24;98460.31;;;14.00;100.00
57779;BME280;43608;49.486;9.640;2022-10-16T00:51:55;98493.72;;;14.16;100.00
57779;BME280;43608;49.486;9.640;2022-10-16T00:52:26;98484.94;;;14.10;100.00
57779;BME280;43608;49.486;9.640;2022-10-16T00:52:58;98492.81;;;14.16;100.00
57779;BME280;43608;49.486;9.640;2022-10-16T00:53:29;98493.72;;;14.16;100.00
57779;BME280;43608;49.486;9.640;2022-10-16T00:54:00;98498.16;;;14.16;100.00
57779;BME280;43608;49.486;9.640;2022-10-16T00:54:31;98495.47;;;14.16;100.00
57779;BME280;43608;49.486;9.640;2022-10-16T00:55:04;98494.63;;;14.15;100.00
57779;BME280;43608;49.486;9.640;2022-10-16T00:55:36;98492.81;;;14.16;100.00
57779;BME280;43608;49.486;9.640;2022-10-16T00:56:06;98487.66;;;14.08;100.00
57779;BME280;43608;49.486;9.640;2022-10-16T00:56:37;98489.31;;;14.14;100.00
57779;BME280;43608;49.486;9.640;2022-10-16T00:57:07;98475.28;;;14.05;100.00
57779;BME280;43608;49.486;9.640;2022-10-16T00:57:39;98485.81;;;14.12;100.00
57779;BME280;43608;49.486;9.640;2022-10-16T00:58:09;98492.00;;;14.14;100.00
57779;BME280;43608;49.486;9.640;2022-10-16T00:58:40;98494.66;;;14.14;100.00
57779;BME280;43608;49.486;9.640;2022-10-16T00:59:16;98490.22;;;14.13;100.00
57779;BME280;43608;49.486;9.640;2022-10-16T00:59:48;98489.34;;;14.12;100.00
57779;BME280;43608;49.486;9.640;2022-10-16T01:00:21;98493.78;;;14.12;100.00
57779;BME280;43608;49.486;9.640;2022-10-16T01:00:52;98491.13;;;14.12;100.00
57779;BME280;43608;49.486;9.640;2022-10-16T01:01:22;98481.38;;;14.11;100.00
57779;BME280;43608;49.486;9.640;2022-10-16T01:01:54;98492.91;;;14.13;100.00
57779;BME280;43608;49.486;9.640;2022-10-16T01:02:24;98490.28;;;14.11;100.00
57779;BME280;43608;49.486;9.640;2022-10-16T01:02:58;98483.19;;;14.10;100.00
57779;BME280;43608;49.486;9.640;2022-10-16T01:03:31;98464.78;;;13.98;100.00
57779;BME280;43608;49.486;9.640;2022-10-16T01:04:02;98461.22;;;13.99;100.00
57779;BME280;43608;49.486;9.640;2022-10-16T01:04:43;98489.38;;;14.11;100.00
57779;BME280;43608;49.486;9.640;2022-10-16T01:05:14;98484.94;;;14.11;100.00
57779;BME280;43608;49.486;9.640;2022-10-16T01:05:49;98486.72;;;14.11;100.00
57779;BME280;43608;49.486;9.640;2022-10-16T01:08:23;98444.66;;;13.84;100.00
57779;BME280;43608;49.486;9.640;2022-10-16T01:09:47;98485.75;;;14.13;100.00
57779;BME280;43608;49.486;9.640;2022-10-16T01:11:04;98476.09;;;14.09;100.00
57779;BME280;43608;49.486;9.640;2022-10-16T01:12:36;98492.78;;;14.17;100.00
57779;BME280;43608;49.486;9.640;2022-10-16T01:13:18;98487.56;;;14.13;100.00
57779;BME280;43608;49.486;9.640;2022-10-16T01:13:58;98505.19;;;14.18;100.00
57779;BME280;43608;49.486;9.640;2022-10-16T01:15:10;98496.28;;;14.19;100.00
57779;BME280;43608;49.486;9.640;2022-10-16T01:15:46;98500.72;;;14.20;100.00
57779;BME280;43608;49.486;9.640;2022-10-16T01:17:17;98495.41;;;14.20;100.00
57779;BME280;43608;49.486;9.640;2022-10-16T01:17:55;98495.41;;;14.20;100.00
57779;BME280;43608;49.486;9.640;2022-10-16T01:18:35;98497.16;;;14.20;100.00
57779;BME280;43608;49.486;9.640;2022-10-16T01:19:20;98493.66;;;14.18;100.00
57779;BME280;43608;49.486;9.640;2022-10-16T01:20:23;98496.22;;;14.23;100.00
57779;BME280;43608;49.486;9.640;2022-10-16T01:21:09;98494.44;;;14.23;100.00
57779;BME280;43608;49.486;9.640;2022-10-16T01:21:43;98493.56;;;14.23;100.00
57779;BME280;43608;49.486;9.640;2022-10-16T01:22:15;98498.03;;;14.22;100.00
57779;BME280;43608;49.486;9.640;2022-10-16T01:23:27;98494.50;;;14.21;100.00
57779;BME280;43608;49.486;9.640;2022-10-16T01:24:43;98490.06;;;14.20;100.00
57779;BME280;43608;49.486;9.640;2022-10-16T01:25:26;98495.41;;;14.20;100.00
57779;BME280;43608;49.486;9.640;2022-10-16T01:26:30;98480.41;;;14.15;100.00
57779;BME280;43608;49.486;9.640;2022-10-16T01:27:15;98489.25;;;14.17;100.00
57779;BME280;43608;49.486;9.640;2022-10-16T01:27:49;98496.38;;;14.16;100.00
57779;BME280;43608;49.486;9.640;2022-10-16T01:28:24;98491.06;;;14.15;100.00
57779;BME280;43608;49.486;9.640;2022-10-16T01:29:04;98493.72;;;14.15;100.00
57779;BME280;43608;49.486;9.640;2022-10-16T01:29:56;98496.44;;;14.13;100.00
57779;BME280;43608;49.486;9.640;2022-10-16T01:30:32;98488.50;;;14.10;100.00
57779;BME280;43608;49.486;9.640;2022-10-16T01:31:04;98489.34;;;14.12;100.00
57779;BME280;43608;49.486;9.640;2022-10-16T01:31:36;98492.00;;;14.12;100.00
57779;BME280;43608;49.486;9.640;2022-10-16T01:32:26;98498.25;;;14.11;100.00
57779;BME280;43608;49.486;9.640;2022-10-16T01:33:28;98504.50;;;14.10;100.00
57779;BME280;43608;49.486;9.640;2022-10-16T01:34:22;98493.06;;;14.05;100.00
57779;BME280;43608;49.486;9.640;2022-10-16T01:35:02;98506.31;;;14.08;100.00
57779;BME280;43608;49.486;9.640;2022-10-16T01:35:43;98506.28;;;14.10;100.00
57779;BME280;43608;49.486;9.640;2022-10-16T01:36:19;98509.81;;;14.10;100.00
57779;BME280;43608;49.486;9.640;2022-10-16T01:36:57;98489.56;;;14.01;100.00
57779;BME280;43608;49.486;9.640;2022-10-16T01:37:37;98507.13;;;14.12;100.00
57779;BME280;43608;49.486;9.640;2022-10-16T01:38:17;98502.81;;;14.06;100.00
57779;BME280;43608;49.486;9.640;2022-10-16T01:38:52;98507.09;;;14.13;100.00
57779;BME280;43608;49.486;9.640;2022-10-16T01:39:28;98510.59;;;14.15;100.00
57779;BME280;43608;49.486;9.640;2022-10-16T01:40:04;98503.44;;;14.17;100.00
57779;BME280;43608;49.486;9.640;2022-10-16T01:40:38;98492.06;;;14.09;100.00
57779;BME280;43608;49.486;9.640;2022-10-16T01:41:13;98506.97;;;14.19;100.00
57779;BME280;43608;49.486;9.640;2022-10-16T01:41:49;98508.72;;;14.20;100.00
57779;BME280;43608;49.486;9.640;2022-10-16T01:42:27;98397.22;;;13.60;100.00
57779;BME280;43608;49.486;9.640;2022-10-16T01:43:03;98509.53;;;14.24;100.00
57779;BME280;43608;49.486;9.640;2022-10-16T01:43:46;98510.41;;;14.25;100.00
57779;BME280;43608;49.486;9.640;2022-10-16T01:44:22;98499.81;;;14.20;100.00
57779;BME280;43608;49.486;9.640;2022-10-16T01:44:55;98495.41;;;14.20;100.00
57779;BME280;43608;49.486;9.640;2022-10-16T01:45:28;98505.00;;;14.28;100.00
57779;BME280;43608;49.486;9.640;2022-10-16T01:46:01;98502.31;;;14.28;100.00
57779;BME280;43608;49.486;9.640;2022-10-16T01:46:33;98495.31;;;14.24;100.00
57779;BME280;43608;49.486;9.640;2022-10-16T01:47:05;98483.88;;;14.18;100.00
57779;BME280;43608;49.486;9.640;2022-10-16T01:47:39;98505.78;;;14.33;100.00
57779;BME280;43608;49.486;9.640;2022-10-16T01:48:12;98507.53;;;14.34;100.00
57779;BME280;43608;49.486;9.640;2022-10-16T01:48:44;98509.28;;;14.35;100.00
57779;BME280;43608;49.486;9.640;2022-10-16T01:49:15;98503.97;;;14.35;100.00
57779;BME280;43608;49.486;9.640;2022-10-16T01:49:47;98502.16;;;14.37;100.00
57779;BME280;43608;49.486;9.640;2022-10-16T01:50:19;98490.63;;;14.35;100.00
57779;BME280;43608;49.486;9.640;2022-10-16T01:51:04;98493.25;;;14.36;100.00
57779;BME280;43608;49.486;9.640;2022-10-16T01:51:37;98497.72;;;14.36;100.00
57779;BME280;43608;49.486;9.640;2022-10-16T01:52:20;98498.63;;;14.35;100.00
57779;BME280;43608;49.486;9.640;2022-10-16T01:52:54;98503.09;;;14.34;100.00
57779;BME280;43608;49.486;9.640;2022-10-16T01:53:25;98496.06;;;14.30;100.00
57779;BME280;43608;49.486;9.640;2022-10-16T01:53:59;98491.66;;;14.28;100.00
57779;BME280;43608;49.486;9.640;2022-10-16T01:54:33;98470.63;;;14.15;100.00
57779;BME280;43608;49.486;9.640;2022-10-16T01:55:07;98502.28;;;14.31;100.00
57779;BME280;43608;49.486;9.640;2022-10-16T01:55:41;98504.88;;;14.34;100.00
57779;BME280;43608;49.486;9.640;2022-10-16T01:56:16;98483.75;;;14.25;100.00
57779;BME280;43608;49.486;9.640;2022-10-16T01:56:48;98509.28;;;14.35;100.00
57779;BME280;43608;49.486;9.640;2022-10-16T01:57:21;98503.97;;;14.35;100.00
57779;BME280;43608;49.486;9.640;2022-10-16T01:57:55;98507.50;;;14.35;100.00
57779;BME280;43608;49.486;9.640;2022-10-16T01:58:27;98506.59;;;14.36;100.00
57779;BME280;43608;49.486;9.640;2022-10-16T01:59:13;98503.91;;;14.36;100.00
57779;BME280;43608;49.486;9.640;2022-10-16T01:59:47;98502.16;;;14.37;100.00
57779;BME280;43608;49.486;9.640;2022-10-16T02:00:21;98511.91;;;14.36;100.00
57779;BME280;43608;49.486;9.640;2022-10-16T02:00:54;98481.13;;;14.23;100.00
57779;BME280;43608;49.486;9.640;2022-10-16T02:01:27;98505.69;;;14.37;100.00
57779;BME280;43608;49.486;9.640;2022-10-16T02:02:01;98481.13;;;14.23;100.00
57779;BME280;43608;49.486;9.640;2022-10-16T02:02:34;98506.50;;;14.40;100.00
57779;BME280;43608;49.486;9.640;2022-10-16T02:03:05;98509.16;;;14.40;100.00
57779;BME280;43608;49.486;9.640;2022-10-16T02:03:39;98498.63;;;14.35;100.00
57779;BME280;43608;49.486;9.640;2022-10-16T02:04:17;98508.25;;;14.41;100.00
57779;BME280;43608;49.486;9.640;2022-10-16T02:04:53;98509.16;;;14.41;100.00
57779;BME280;43608;49.486;9.640;2022-10-16T02:05:32;98512.69;;;14.42;100.00
57779;BME280;43608;49.486;9.640;2022-10-16T02:06:04;98509.25;;;14.36;100.00
57779;BME280;43608;49.486;9.640;2022-10-16T02:06:34;98509.16;;;14.41;100.00
57779;BME280;43608;49.486;9.640;2022-10-16T02:07:06;98512.66;;;14.43;100.00
57779;BME280;43608;49.486;9.640;2022-10-16T02:07:37;98521.53;;;14.44;100.00
57779;BME280;43608;49.486;9.640;2022-10-16T02:08:07;98511.78;;;14.43;100.00
57779;BME280;43608;49.486;9.640;2022-10-16T02:08:38;98515.31;;;14.43;100.00
57779;BME280;43608;49.486;9.640;2022-10-16T02:09:10;98512.59;;;14.45;100.00
57779;BME280;43608;49.486;9.640;2022-10-16T02:09:41;98504.59;;;14.45;100.00
57779;BME280;43608;49.486;9.640;2022-10-16T02:10:11;98494.97;;;14.39;100.00
57779;BME280;43608;49.486;9.640;2022-10-16T02:10:42;98497.69;;;14.37;100.00
57779;BME280;43608;49.486;9.640;2022-10-16T02:11:12;98502.88;;;14.44;100.00
57779;BME280;43608;49.486;9.640;2022-10-16T02:11:43;98480.06;;;14.30;100.00
57779;BME280;43608;49.486;9.640;2022-10-16T02:12:24;98509.94;;;14.46;100.00
57779;BME280;43608;49.486;9.640;2022-10-16T02:13:00;98494.97;;;14.39;100.00
57779;BME280;43608;49.486;9.640;2022-10-16T02:13:55;98500.13;;;14.47;100.00
57779;BME280;43608;49.486;9.640;2022-10-16T02:14:29;98492.31;;;14.39;100.00
57779;BME280;43608;49.486;9.640;2022-10-16T02:15:00;98507.22;;;14.48;100.00
57779;BME280;43608;49.486;9.640;2022-10-16T02:15:30;98507.19;;;14.49;100.00
57779;BME280;43608;49.486;9.640;2022-10-16T02:16:01;98502.75;;;14.48;100.00
57779;BME280;43608;49.486;9.640;2022-10-16T02:16:45;98509.81;;;14.51;100.00
57779;BME280;43608;49.486;9.640;2022-10-16T02:17:17;98507.16;;;14.51;100.00
57779;BME280;43608;49.486;9.640;2022-10-16T02:17:48;98506.25;;;14.52;100.00
57779;BME280;43608;49.486;9.640;2022-10-16T02:18:18;98511.53;;;14.53;100.00
57779;BME280;43608;49.486;9.640;2022-10-16T02:18:49;98503.53;;;14.53;100.00
57779;BME280;43608;49.486;9.640;2022-10-16T02:19:20;98487.78;;;14.43;100.00
57779;BME280;43608;49.486;9.640;2022-10-16T02:19:54;98497.28;;;14.54;100.00
57779;BME280;43608;49.486;9.640;2022-10-16T02:20:28;98507.06;;;14.56;100.00
57779;BME280;43608;49.486;9.640;2022-10-16T02:21:12;98499.16;;;14.51;100.00
57779;BME280;43608;49.486;9.640;2022-10-16T02:21:49;98503.53;;;14.53;100.00
57779;BME280;43608;49.486;9.640;2022-10-16T02:22:32;98499.06;;;14.56;100.00
57779;BME280;43608;49.486;9.640;2022-10-16T02:23:04;98509.72;;;14.56;100.00
57779;BME280;43608;49.486;9.640;2022-10-16T02:25:37;98506.19;;;14.53;100.00
57779;BME280;43608;49.486;9.640;2022-10-16T02:26:13;98509.75;;;14.54;100.00
57779;BME280;43608;49.486;9.640;2022-10-16T02:27:33;98508.91;;;14.52;100.00
57779;BME280;43608;49.486;9.640;2022-10-16T02:28:47;98513.38;;;14.50;100.00
57779;BME280;43608;49.486;9.640;2022-10-16T02:29:24;98515.19;;;14.49;100.00
57779;BME280;43608;49.486;9.640;2022-10-16T02:30:05;98515.19;;;14.49;100.00
57779;BME280;43608;49.486;9.640;2022-10-16T02:31:10;98518.75;;;14.48;100.00
57779;BME280;43608;49.486;9.640;2022-10-16T02:31:46;98518.78;;;14.47;100.00
57779;BME280;43608;49.486;9.640;2022-10-16T02:32:21;98525.00;;;14.47;100.00
57779;BME280;43608;49.486;9.640;2022-10-16T02:32:53;98503.97;;;14.35;100.00
57779;BME280;43608;49.486;9.640;2022-10-16T02:33:25;98524.13;;;14.47;100.00
57779;BME280;43608;49.486;9.640;2022-10-16T02:33:58;98521.47;;;14.47;100.00
57779;BME280;43608;49.486;9.640;2022-10-16T02:34:31;98516.16;;;14.45;100.00
57779;BME280;43608;49.486;9.640;2022-10-16T02:35:03;98513.53;;;14.44;100.00
57779;BME280;43608;49.486;9.640;2022-10-16T02:35:35;98520.59;;;14.46;100.00
57779;BME280;43608;49.486;9.640;2022-10-16T02:36:07;98523.25;;;14.46;100.00
57779;BME280;43608;49.486;9.640;2022-10-16T02:36:39;98495.16;;;14.31;100.00
57779;BME280;43608;49.486;9.640;2022-10-16T02:37:10;98506.53;;;14.38;100.00
57779;BME280;43608;49.486;9.640;2022-10-16T02:37:42;98524.16;;;14.45;100.00
57779;BME280;43608;49.486;9.640;2022-10-16T02:38:14;98515.25;;;14.46;100.00
57779;BME280;43608;49.486;9.640;2022-10-16T02:38:45;98521.50;;;14.45;100.00
57779;BME280;43608;49.486;9.640;2022-10-16T02:39:16;98522.38;;;14.46;100.00
57779;BME280;43608;49.486;9.640;2022-10-16T02:39:48;98526.78;;;14.47;100.00
57779;BME280;43608;49.486;9.640;2022-10-16T02:40:19;98532.16;;;14.45;100.00
57779;BME280;43608;49.486;9.640;2022-10-16T02:40:50;98530.38;;;14.46;100.00
57779;BME280;43608;49.486;9.640;2022-10-16T02:41:22;98527.69;;;14.46;100.00
57779;BME280;43608;49.486;9.640;2022-10-16T02:41:53;98525.94;;;14.45;100.00
57779;BME280;43608;49.486;9.640;2022-10-16T02:42:35;98516.25;;;14.41;100.00
57779;BME280;43608;49.486;9.640;2022-10-16T02:43:06;98526.88;;;14.44;100.00
57779;BME280;43608;49.486;9.640;2022-10-16T02:43:36;98527.69;;;14.46;100.00
57779;BME280;43608;49.486;9.640;2022-10-16T02:44:07;98524.16;;;14.45;100.00
57779;BME280;43608;49.486;9.640;2022-10-16T02:44:37;98532.16;;;14.45;100.00
57779;BME280;43608;49.486;9.640;2022-10-16T02:45:09;98530.41;;;14.44;100.00
57779;BME280;43608;49.486;9.640;2022-10-16T02:45:40;98525.06;;;14.44;100.00
57779;BME280;43608;49.486;9.640;2022-10-16T02:46:10;98531.28;;;14.45;100.00
57779;BME280;43608;49.486;9.640;2022-10-16T02:46:40;98490.88;;;14.24;100.00
57779;BME280;43608;49.486;9.640;2022-10-16T02:47:11;98531.28;;;14.45;100.00
57779;BME280;43608;49.486;9.640;2022-10-16T02:47:42;98455.91;;;13.97;100.00
57779;BME280;43608;49.486;9.640;2022-10-16T02:48:12;98525.97;;;14.43;100.00
57779;BME280;43608;49.486;9.640;2022-10-16T02:48:43;98534.84;;;14.45;100.00
57779;BME280;43608;49.486;9.640;2022-10-16T02:49:14;98534.03;;;14.42;100.00
57779;BME280;43608;49.486;9.640;2022-10-16T02:49:44;98521.56;;;14.42;100.00
57779;BME280;43608;49.486;9.640;2022-10-16T02:50:15;98519.78;;;14.43;100.00
57779;BME280;43608;49.486;9.640;2022-10-16T02:50:45;98536.66;;;14.43;100.00
57779;BME280;43608;49.486;9.640;2022-10-16T02:51:15;98524.22;;;14.44;100.00
57779;BME280;43608;49.486;9.640;2022-10-16T02:51:46;98522.50;;;14.41;100.00
57779;BME280;43608;49.486;9.640;2022-10-16T02:52:16;98526.94;;;14.41;100.00
57779;BME280;43608;49.486;9.640;2022-10-16T02:52:46;98529.56;;;14.42;100.00
57779;BME280;43608;49.486;9.640;2022-10-16T02:53:17;98523.34;;;14.42;100.00
57779;BME280;43608;49.486;9.640;2022-10-16T02:53:47;98526.88;;;14.42;100.00
57779;BME280;43608;49.486;9.640;2022-10-16T02:54:18;98469.84;;;14.10;100.00
57779;BME280;43608;49.486;9.640;2022-10-16T02:54:48;98501.47;;;14.27;100.00
57779;BME280;43608;49.486;9.640;2022-10-16T02:55:18;98511.84;;;14.40;100.00
57779;BME280;43608;49.486;9.640;2022-10-16T02:55:49;98510.16;;;14.35;100.00
57779;BME280;43608;49.486;9.640;2022-10-16T02:56:19;98511.81;;;14.41;100.00
57779;BME280;43608;49.486;9.640;2022-10-16T02:56:49;98526.03;;;14.42;100.00
57779;BME280;43608;49.486;9.640;2022-10-16T02:57:20;98517.16;;;14.41;100.00
57779;BME280;43608;49.486;9.640;2022-10-16T02:57:50;98514.44;;;14.43;100.00
57779;BME280;43608;49.486;9.640;2022-10-16T02:58:21;98495.22;;;14.28;100.00
57779;BME280;43608;49.486;9.640;2022-10-16T02:58:51;98521.56;;;14.42;100.00
57779;BME280;43608;49.486;9.640;2022-10-16T02:59:21;98519.84;;;14.40;100.00
57779;BME280;43608;49.486;9.640;2022-10-16T02:59:52;98502.16;;;14.35;100.00
57779;BME280;43608;49.486;9.640;2022-10-16T03:00:22;98512.78;;;14.38;100.00
57779;BME280;43608;49.486;9.640;2022-10-16T03:00:53;98514.50;;;14.41;100.00
57779;BME280;43608;49.486;9.640;2022-10-16T03:01:23;98515.34;;;14.42;100.00
57779;BME280;43608;49.486;9.640;2022-10-16T03:01:53;98514.50;;;14.41;100.00
57779;BME280;43608;49.486;9.640;2022-10-16T03:02:24;98518.94;;;14.41;100.00
57779;BME280;43608;49.486;9.640;2022-10-16T03:02:54;98495.19;;;14.30;100.00
57779;BME280;43608;49.486;9.640;2022-10-16T03:03:25;98508.34;;;14.37;100.00
57779;BME280;43608;49.486;9.640;2022-10-16T03:03:55;98521.59;;;14.41;100.00
57779;BME280;43608;49.486;9.640;2022-10-16T03:04:25;98489.94;;;14.25;100.00
57779;BME280;43608;49.486;9.640;2022-10-16T03:04:56;98514.53;;;14.38;100.00
57779;BME280;43608;49.486;9.640;2022-10-16T03:05:26;98520.78;;;14.38;100.00
57779;BME280;43608;49.486;9.640;2022-10-16T03:05:57;98499.75;;;14.25;100.00
57779;BME280;43608;49.486;9.640;2022-10-16T03:06:27;98509.41;;;14.29;100.00
57779;BME280;43608;49.486;9.640;2022-10-16T03:06:57;98525.22;;;14.38;100.00
57779;BME280;43608;49.486;9.640;2022-10-16T03:07:28;98535.00;;;14.37;100.00
57779;BME280;43608;49.486;9.640;2022-10-16T03:07:58;98532.38;;;14.36;100.00
57779;BME280;43608;49.486;9.640;2022-10-16T03:08:30;98530.56;;;14.36;100.00